Terminal Aerodrome Forecast
Issued by NWS Wilmington, OH

Current Version | Previous Version | Graphics & Text | Print | Product List | Glossary On
Versions: 1 2 3 4 5 6 7 8 9 10 11 12 13 14 15 16 17 18 19 20 21 22 23
000
FTUS41 KILN 031956 AAA
TAFDAY
TAF AMD
KDAY 031956Z 0320/0418 24006KT P6SM OVC029
     FM032200 VRB03KT P6SM BKN035
     FM041000 12004KT P6SM FEW040 BKN150
     FM041500 13008KT P6SM VCSH BKN050=

USA.gov is the U.S. government's official web portal to all federal, state and local government web resources and services.